sensor_id;sensor_type;location;lat;lon;timestamp;P1;durP1;ratioP1;P2;durP2;ratioP2
35243;SDS011;37916;52.160;21.066;2023-04-03T00:07:56;2.60;;;1.10;;
35243;SDS011;37916;52.160;21.066;2023-04-03T00:17:57;3.33;;;0.90;;
35243;SDS011;37916;52.160;21.066;2023-04-03T00:27:58;3.42;;;0.75;;
35243;SDS011;37916;52.160;21.066;2023-04-03T00:37:59;2.33;;;1.02;;
35243;SDS011;37916;52.160;21.066;2023-04-03T00:48:00;3.05;;;0.88;;
35243;SDS011;37916;52.160;21.066;2023-04-03T00:58:06;2.25;;;0.75;;
35243;SDS011;37916;52.160;21.066;2023-04-03T01:08:07;3.47;;;0.98;;
35243;SDS011;37916;52.160;21.066;2023-04-03T01:18:09;4.03;;;1.08;;
35243;SDS011;37916;52.160;21.066;2023-04-03T01:28:14;1.63;;;0.63;;
35243;SDS011;37916;52.160;21.066;2023-04-03T01:38:17;2.45;;;0.60;;
35243;SDS011;37916;52.160;21.066;2023-04-03T01:48:18;2.10;;;0.85;;
35243;SDS011;37916;52.160;21.066;2023-04-03T01:58:19;2.22;;;0.63;;
35243;SDS011;37916;52.160;21.066;2023-04-03T02:08:19;2.25;;;0.75;;
35243;SDS011;37916;52.160;21.066;2023-04-03T02:18:20;1.50;;;0.63;;
35243;SDS011;37916;52.160;21.066;2023-04-03T02:28:21;1.77;;;0.70;;
35243;SDS011;37916;52.160;21.066;2023-04-03T02:38:22;2.47;;;0.90;;
35243;SDS011;37916;52.160;21.066;2023-04-03T02:48:23;1.50;;;0.55;;
35243;SDS011;37916;52.160;21.066;2023-04-03T02:58:24;2.00;;;0.60;;
35243;SDS011;37916;52.160;21.066;2023-04-03T03:08:25;2.95;;;0.57;;
35243;SDS011;37916;52.160;21.066;2023-04-03T03:18:25;2.15;;;0.50;;
35243;SDS011;37916;52.160;21.066;2023-04-03T03:28:26;1.05;;;0.68;;
35243;SDS011;37916;52.160;21.066;2023-04-03T03:38:27;1.52;;;0.45;;
35243;SDS011;37916;52.160;21.066;2023-04-03T03:48:28;3.72;;;1.00;;
35243;SDS011;37916;52.160;21.066;2023-04-03T03:58:28;3.50;;;1.10;;
35243;SDS011;37916;52.160;21.066;2023-04-03T04:08:29;2.25;;;0.80;;
35243;SDS011;37916;52.160;21.066;2023-04-03T04:18:30;2.85;;;0.50;;
35243;SDS011;37916;52.160;21.066;2023-04-03T04:28:31;2.10;;;0.70;;
35243;SDS011;37916;52.160;21.066;2023-04-03T04:38:31;3.05;;;0.57;;
35243;SDS011;37916;52.160;21.066;2023-04-03T04:48:32;1.48;;;0.50;;
35243;SDS011;37916;52.160;21.066;2023-04-03T04:58:34;6.20;;;1.15;;
35243;SDS011;37916;52.160;21.066;2023-04-03T05:08:35;2.30;;;0.65;;
35243;SDS011;37916;52.160;21.066;2023-04-03T05:18:36;1.30;;;0.60;;
35243;SDS011;37916;52.160;21.066;2023-04-03T05:28:36;3.35;;;0.70;;
35243;SDS011;37916;52.160;21.066;2023-04-03T05:38:40;3.80;;;0.93;;
35243;SDS011;37916;52.160;21.066;2023-04-03T05:48:43;4.20;;;1.52;;
35243;SDS011;37916;52.160;21.066;2023-04-03T05:58:44;1.65;;;0.68;;
35243;SDS011;37916;52.160;21.066;2023-04-03T06:08:45;2.13;;;0.95;;
35243;SDS011;37916;52.160;21.066;2023-04-03T06:18:46;3.08;;;1.17;;
35243;SDS011;37916;52.160;21.066;2023-04-03T06:28:47;3.45;;;1.17;;
35243;SDS011;37916;52.160;21.066;2023-04-03T06:38:48;1.45;;;0.82;;
35243;SDS011;37916;52.160;21.066;2023-04-03T06:48:51;5.20;;;1.10;;
35243;SDS011;37916;52.160;21.066;2023-04-03T06:58:53;1.70;;;0.90;;
35243;SDS011;37916;52.160;21.066;2023-04-03T07:08:55;2.72;;;1.02;;
35243;SDS011;37916;52.160;21.066;2023-04-03T07:18:56;2.22;;;0.77;;
35243;SDS011;37916;52.160;21.066;2023-04-03T07:28:57;2.97;;;1.15;;
35243;SDS011;37916;52.160;21.066;2023-04-03T07:38:58;4.72;;;0.95;;
35243;SDS011;37916;52.160;21.066;2023-04-03T07:48:58;1.40;;;0.70;;
35243;SDS011;37916;52.160;21.066;2023-04-03T07:58:59;3.53;;;0.90;;
35243;SDS011;37916;52.160;21.066;2023-04-03T08:09:00;4.13;;;1.27;;
35243;SDS011;37916;52.160;21.066;2023-04-03T08:19:02;2.42;;;0.93;;
35243;SDS011;37916;52.160;21.066;2023-04-03T08:29:03;3.90;;;1.35;;
35243;SDS011;37916;52.160;21.066;2023-04-03T08:39:04;1.52;;;0.80;;
35243;SDS011;37916;52.160;21.066;2023-04-03T08:49:06;3.60;;;1.00;;
35243;SDS011;37916;52.160;21.066;2023-04-03T08:59:19;2.03;;;0.80;;
35243;SDS011;37916;52.160;21.066;2023-04-03T09:09:47;2.72;;;0.40;;
35243;SDS011;37916;52.160;21.066;2023-04-03T09:30:24;1.27;;;0.73;;
35243;SDS011;37916;52.160;21.066;2023-04-03T09:50:27;3.15;;;0.95;;
35243;SDS011;37916;52.160;21.066;2023-04-03T10:00:38;0.70;;;0.60;;
35243;SDS011;37916;52.160;21.066;2023-04-03T10:10:44;2.75;;;0.80;;
35243;SDS011;37916;52.160;21.066;2023-04-03T10:20:47;2.72;;;0.70;;
35243;SDS011;37916;52.160;21.066;2023-04-03T10:31:07;1.13;;;0.60;;
35243;SDS011;37916;52.160;21.066;2023-04-03T11:01:49;2.97;;;0.70;;
35243;SDS011;37916;52.160;21.066;2023-04-03T11:12:16;3.47;;;0.77;;
35243;SDS011;37916;52.160;21.066;2023-04-03T11:22:34;1.38;;;0.80;;
35243;SDS011;37916;52.160;21.066;2023-04-03T11:43:27;2.05;;;0.70;;
35243;SDS011;37916;52.160;21.066;2023-04-03T12:34:18;1.70;;;0.57;;
35243;SDS011;37916;52.160;21.066;2023-04-03T12:44:43;3.97;;;0.63;;
35243;SDS011;37916;52.160;21.066;2023-04-03T12:54:55;1.35;;;0.60;;
35243;SDS011;37916;52.160;21.066;2023-04-03T13:04:58;2.17;;;0.80;;
35243;SDS011;37916;52.160;21.066;2023-04-03T13:15:17;1.85;;;0.57;;
35243;SDS011;37916;52.160;21.066;2023-04-03T13:25:42;4.68;;;1.77;;
35243;SDS011;37916;52.160;21.066;2023-04-03T13:35:45;2.75;;;0.70;;
35243;SDS011;37916;52.160;21.066;2023-04-03T13:56:29;1.15;;;0.57;;
35243;SDS011;37916;52.160;21.066;2023-04-03T14:06:32;2.65;;;0.70;;
35243;SDS011;37916;52.160;21.066;2023-04-03T14:16:36;1.85;;;0.70;;
35243;SDS011;37916;52.160;21.066;2023-04-03T14:26:39;2.45;;;0.88;;
35243;SDS011;37916;52.160;21.066;2023-04-03T14:36:41;3.35;;;0.88;;
35243;SDS011;37916;52.160;21.066;2023-04-03T14:46:44;2.53;;;0.70;;
35243;SDS011;37916;52.160;21.066;2023-04-03T14:57:01;1.80;;;0.80;;
35243;SDS011;37916;52.160;21.066;2023-04-03T15:07:02;3.03;;;0.70;;
35243;SDS011;37916;52.160;21.066;2023-04-03T15:17:04;2.72;;;0.80;;
35243;SDS011;37916;52.160;21.066;2023-04-03T15:27:05;2.20;;;0.73;;
35243;SDS011;37916;52.160;21.066;2023-04-03T15:37:06;2.20;;;0.70;;
35243;SDS011;37916;52.160;21.066;2023-04-03T15:47:07;2.20;;;0.65;;
35243;SDS011;37916;52.160;21.066;2023-04-03T15:57:08;1.30;;;0.80;;
35243;SDS011;37916;52.160;21.066;2023-04-03T16:07:12;1.55;;;1.13;;
35243;SDS011;37916;52.160;21.066;2023-04-03T16:17:15;1.15;;;0.70;;
35243;SDS011;37916;52.160;21.066;2023-04-03T16:27:27;4.15;;;0.88;;
35243;SDS011;37916;52.160;21.066;2023-04-03T16:37:30;4.18;;;0.85;;
35243;SDS011;37916;52.160;21.066;2023-04-03T16:47:31;2.53;;;0.98;;
35243;SDS011;37916;52.160;21.066;2023-04-03T16:57:32;3.20;;;0.90;;
35243;SDS011;37916;52.160;21.066;2023-04-03T17:07:34;3.03;;;1.30;;
35243;SDS011;37916;52.160;21.066;2023-04-03T17:17:40;2.83;;;1.42;;
35243;SDS011;37916;52.160;21.066;2023-04-03T17:27:41;2.10;;;1.50;;
35243;SDS011;37916;52.160;21.066;2023-04-03T17:37:41;3.72;;;1.63;;
35243;SDS011;37916;52.160;21.066;2023-04-03T17:57:52;1.35;;;0.82;;
35243;SDS011;37916;52.160;21.066;2023-04-03T18:07:53;4.78;;;1.45;;
35243;SDS011;37916;52.160;21.066;2023-04-03T18:17:55;3.30;;;0.80;;
35243;SDS011;37916;52.160;21.066;2023-04-03T18:27:56;4.00;;;0.98;;
35243;SDS011;37916;52.160;21.066;2023-04-03T18:37:59;2.65;;;1.02;;
35243;SDS011;37916;52.160;21.066;2023-04-03T18:58:51;2.78;;;1.25;;
35243;SDS011;37916;52.160;21.066;2023-04-03T19:08:54;6.63;;;2.25;;
35243;SDS011;37916;52.160;21.066;2023-04-03T19:29:09;5.05;;;2.40;;
35243;SDS011;37916;52.160;21.066;2023-04-03T19:39:10;4.13;;;2.33;;
35243;SDS011;37916;52.160;21.066;2023-04-03T19:49:11;5.13;;;2.65;;
35243;SDS011;37916;52.160;21.066;2023-04-03T19:59:18;3.85;;;2.50;;
35243;SDS011;37916;52.160;21.066;2023-04-03T20:09:19;5.90;;;2.50;;
35243;SDS011;37916;52.160;21.066;2023-04-03T20:19:21;5.25;;;3.13;;
35243;SDS011;37916;52.160;21.066;2023-04-03T20:39:26;4.55;;;2.75;;
35243;SDS011;37916;52.160;21.066;2023-04-03T20:49:31;5.35;;;2.67;;
35243;SDS011;37916;52.160;21.066;2023-04-03T20:59:32;8.17;;;3.57;;
35243;SDS011;37916;52.160;21.066;2023-04-03T21:20:13;4.70;;;2.63;;
35243;SDS011;37916;52.160;21.066;2023-04-03T21:30:14;4.40;;;2.20;;
35243;SDS011;37916;52.160;21.066;2023-04-03T21:40:15;7.88;;;3.28;;
35243;SDS011;37916;52.160;21.066;2023-04-03T21:50:16;4.65;;;2.20;;
35243;SDS011;37916;52.160;21.066;2023-04-03T22:00:18;4.40;;;2.58;;
35243;SDS011;37916;52.160;21.066;2023-04-03T22:10:22;5.28;;;2.50;;
35243;SDS011;37916;52.160;21.066;2023-04-03T22:20:23;2.75;;;1.70;;
35243;SDS011;37916;52.160;21.066;2023-04-03T22:30:24;5.07;;;2.25;;
35243;SDS011;37916;52.160;21.066;2023-04-03T22:40:25;6.15;;;2.53;;
35243;SDS011;37916;52.160;21.066;2023-04-03T22:50:26;5.70;;;2.60;;
35243;SDS011;37916;52.160;21.066;2023-04-03T23:00:27;4.85;;;2.22;;
35243;SDS011;37916;52.160;21.066;2023-04-03T23:10:27;4.65;;;2.55;;
35243;SDS011;37916;52.160;21.066;2023-04-03T23:20:28;8.40;;;2.00;;
35243;SDS011;37916;52.160;21.066;2023-04-03T23:30:29;4.28;;;2.30;;
35243;SDS011;37916;52.160;21.066;2023-04-03T23:40:30;3.55;;;2.58;;
35243;SDS011;37916;52.160;21.066;2023-04-03T23:50:31;9.23;;;2.45;;
